^^
Meteo Knjazevac Station Historical Data
Daily Summary for April 21, 2021 Units:  Both    English   Metric
Daily Weekly Monthly Yearly Custom
  High: Low: Average:
Temperature: 55.2 °F /  12.9 °C 51.4 °F /  10.8 °C 53.1 °F /  11.7 °C
Dew Point: 51.7 °F /  10.9 °C 48.5 °F /  9.2 °C 49.9 °F /  9.9 °C
Humidity: 95% 85% 89%
Wind Speed: 7mph /  11.3km/h - 2.2mph /  3.5km/h
Wind Gust: 11mph /  17.7km/h - -
Wind- - SW
Pressure: 30.25 in /  1024.3 hPa 30.20 in /  1022.6 hPa -
Precipitation: 0.00 in /  0 mm    
Historical Graphs
 
 
Tabular Data for April 21, 2021
Time Temperature Dew Point Pressure Wind Wind Speed Wind Gust Humidity Rainfall Rate (Hourly) solar Conditions
00:00 55.2 °F /  12.9 °C 51.7 °F /  10.9 °C 30.21in /  1022.9hPa West 7mph /  11.3km/h 11mph /  17.7km/h 88% 0.00in /  0mm 0 W/m2
00:10 54.9 °F /  12.7 °C 51.4 °F /  10.8 °C 30.21in /  1022.9hPa West 2mph /  3.2km/h 10mph /  16.1km/h 88% 0.00in /  0mm 0 W/m2
00:20 54.9 °F /  12.7 °C 51.4 °F /  10.8 °C 30.21in /  1022.9hPa West 3mph /  4.8km/h 7mph /  11.3km/h 88% 0.00in /  0mm 0 W/m2
00:30 54.7 °F /  12.6 °C 51.2 °F /  10.7 °C 30.20in /  1022.6hPa West 3mph /  4.8km/h 7mph /  11.3km/h 88% 0.00in /  0mm 0 W/m2
00:40 54.7 °F /  12.6 °C 51.2 °F /  10.7 °C 30.21in /  1022.9hPa West 3mph /  4.8km/h 9mph /  14.5km/h 88% 0.00in /  0mm 0 W/m2
00:50 54.5 °F /  12.5 °C 51 °F /  10.6 °C 30.21in /  1022.9hPa West 6mph /  9.7km/h 9mph /  14.5km/h 88% 0.00in /  0mm 0 W/m2
01:00 54.3 °F /  12.4 °C 50.8 °F /  10.4 °C 30.21in /  1022.9hPa West 5mph /  8km/h 11mph /  17.7km/h 88% 0.00in /  0mm 0 W/m2
01:10 54.3 °F /  12.4 °C 50.8 °F /  10.4 °C 30.21in /  1022.9hPa WSW 3mph /  4.8km/h 10mph /  16.1km/h 88% 0.00in /  0mm 0 W/m2
01:20 54 °F /  12.2 °C 50.5 °F /  10.3 °C 30.21in /  1022.9hPa WSW 3mph /  4.8km/h 7mph /  11.3km/h 88% 0.00in /  0mm 0 W/m2
01:30 54 °F /  12.2 °C 50.5 °F /  10.3 °C 30.21in /  1022.9hPa SW 3mph /  4.8km/h 7mph /  11.3km/h 88% 0.00in /  0mm 0 W/m2
01:40 54 °F /  12.2 °C 50.5 °F /  10.3 °C 30.22in /  1023.2hPa SW 3mph /  4.8km/h 8mph /  12.9km/h 88% 0.00in /  0mm 0 W/m2
01:50 54 °F /  12.2 °C 50.5 °F /  10.3 °C 30.22in /  1023.2hPa SW 2mph /  3.2km/h 6mph /  9.7km/h 88% 0.00in /  0mm 0 W/m2
02:00 54 °F /  12.2 °C 49.9 °F /  9.9 °C 30.22in /  1023.2hPa WSW 2mph /  3.2km/h 7mph /  11.3km/h 86% 0.00in /  0mm 0 W/m2
02:10 53.8 °F /  12.1 °C 49.7 °F /  9.8 °C 30.22in /  1023.2hPa WSW 5mph /  8km/h 7mph /  11.3km/h 86% 0.00in /  0mm 0 W/m2
02:20 53.8 °F /  12.1 °C 49.7 °F /  9.8 °C 30.22in /  1023.2hPa WSW 5mph /  8km/h 7mph /  11.3km/h 86% 0.00in /  0mm 0 W/m2
02:30 53.6 °F /  12 °C 49.5 °F /  9.7 °C 30.22in /  1023.2hPa WSW 5mph /  8km/h 8mph /  12.9km/h 86% 0.00in /  0mm 0 W/m2
02:40 53.6 °F /  12 °C 49.5 °F /  9.7 °C 30.22in /  1023.2hPa WSW 5mph /  8km/h 8mph /  12.9km/h 86% 0.00in /  0mm 0 W/m2
02:50 53.4 °F /  11.9 °C 49 °F /  9.4 °C 30.22in /  1023.2hPa WSW 3mph /  4.8km/h 7mph /  11.3km/h 85% 0.00in /  0mm 0 W/m2
03:00 53.3 °F /  11.8 °C 48.9 °F /  9.4 °C 30.22in /  1023.2hPa SW 5mph /  8km/h 6mph /  9.7km/h 85% 0.00in /  0mm 0 W/m2
03:10 53.1 °F /  11.7 °C 48.7 °F /  9.3 °C 30.22in /  1023.2hPa WSW 2mph /  3.2km/h 6mph /  9.7km/h 85% 0.00in /  0mm 0 W/m2
03:20 52.9 °F /  11.6 °C 48.5 °F /  9.2 °C 30.22in /  1023.2hPa SW 2mph /  3.2km/h 5mph /  8km/h 85% 0.00in /  0mm 0 W/m2
03:30 52.5 °F /  11.4 °C 48.5 °F /  9.2 °C 30.22in /  1023.2hPa SW 2mph /  3.2km/h 4mph /  6.4km/h 86% 0.00in /  0mm 0 W/m2
03:40 52.5 °F /  11.4 °C 49.1 °F /  9.5 °C 30.22in /  1023.2hPa SW 2mph /  3.2km/h 5mph /  8km/h 88% 0.00in /  0mm 0 W/m2
03:50 52.2 °F /  11.2 °C 49.3 °F /  9.6 °C 30.22in /  1023.2hPa South 2mph /  3.2km/h 5mph /  8km/h 90% 0.00in /  0mm 0 W/m2
04:00 52.2 °F /  11.2 °C 49.3 °F /  9.6 °C 30.22in /  1023.2hPa ENE 1mph /  1.6km/h 5mph /  8km/h 90% 0.00in /  0mm 0 W/m2
04:10 52.2 °F /  11.2 °C 49.3 °F /  9.6 °C 30.22in /  1023.2hPa NE 1mph /  1.6km/h 4mph /  6.4km/h 90% 0.00in /  0mm 0 W/m2
04:20 52.2 °F /  11.2 °C 49.3 °F /  9.6 °C 30.22in /  1023.2hPa Calm   4mph /  6.4km/h 90% 0.00in /  0mm 0 W/m2
04:30 52.2 °F /  11.2 °C 49.3 °F /  9.6 °C 30.22in /  1023.2hPa Calm     90% 0.00in /  0mm 0 W/m2
04:40 52.2 °F /  11.2 °C 49.6 °F /  9.8 °C 30.22in /  1023.2hPa Calm   2mph /  3.2km/h 91% 0.00in /  0mm 0 W/m2
04:50 52.2 °F /  11.2 °C 49.6 °F /  9.8 °C 30.23in /  1023.6hPa Calm   2mph /  3.2km/h 91% 0.00in /  0mm 0 W/m2
05:00 52 °F /  11.1 °C 49.4 °F /  9.7 °C 30.23in /  1023.6hPa Calm   1mph /  1.6km/h 91% 0.00in /  0mm 0 W/m2
05:10 52 °F /  11.1 °C 49.4 °F /  9.7 °C 30.23in /  1023.6hPa Calm   1mph /  1.6km/h 91% 0.00in /  0mm 0 W/m2
05:20 51.8 °F /  11 °C 49.8 °F /  9.9 °C 30.23in /  1023.6hPa SE 1mph /  1.6km/h 2mph /  3.2km/h 93% 0.00in /  0mm 0 W/m2
05:30 51.8 °F /  11 °C 49.8 °F /  9.9 °C 30.23in /  1023.6hPa ESE 1mph /  1.6km/h 2mph /  3.2km/h 93% 0.00in /  0mm 0 W/m2
05:40 51.8 °F /  11 °C 50.1 °F /  10.1 °C 30.24in /  1023.9hPa Calm   2mph /  3.2km/h 94% 0.00in /  0mm 0 W/m2
05:50 51.6 °F /  10.9 °C 49.9 °F /  9.9 °C 30.24in /  1023.9hPa Calm     94% 0.00in /  0mm 0 W/m2
06:00 51.4 °F /  10.8 °C 49.8 °F /  9.9 °C 30.24in /  1023.9hPa Calm   1mph /  1.6km/h 94% 0.00in /  0mm 0 W/m2
06:10 51.4 °F /  10.8 °C 49.8 °F /  9.9 °C 30.25in /  1024.3hPa Calm   2mph /  3.2km/h 94% 0.00in /  0mm 0 W/m2
06:20 51.4 °F /  10.8 °C 49.8 °F /  9.9 °C 30.25in /  1024.3hPa Calm   2mph /  3.2km/h 94% 0.00in /  0mm 3 W/m2
06:30 51.4 °F /  10.8 °C 50.1 °F /  10.1 °C 30.25in /  1024.3hPa Calm   2mph /  3.2km/h 95% 0.00in /  0mm 8 W/m2
Knjazevac, Serbia
Compliments of Weather Underground - 2 mb